»·PEaware :: N346BC KSEZ-KABQ

N346BC :: KSEZ-KABQ

FLIGHT INFORMATION

Flight Status: Arrived
Operator: Privately registered:
United States
More flights under this callsign
Pilot: Alex C. (14758)
Aircraft: Unknown
(LJ36)
More flights by this aircraft type
Origin: KSEZ Sedona
United States
Destination: KABQ Albuquerque Intl Sunport
United States
More flights between these airports :: More routes between these airports
Route: OATES1 OATES KEYKE J96 GUP LOWBO3
File this flight plan on PilotEdge
Remarks:
Altitude:
(Current/Filed)
25,000ft
Speed:
(Current/Filed)
430kts
Departed: 24-Jan-18 07:39 PM
Arrived: 24-Jan-18 08:33 PM
Distance/Time
Traveled:
255nm/0:54
Distance/Time
To Go:
Arrived

Flight Plot

Page will automatically refresh every two minutes.

Flight plan parsing failed; only flown route is shown


Map Options




Map Legend


Flown Route
Filed Route
Departure Airport
Arrival Airport
Navaid (VOR, NDB)
Fix

Horizontal Profiles

Position Reports

Time Latitude Longitude Heading Altitude Ground
Speed
24-Jan-18 19:37 34.849729 -111.788763 242 4835ft 0kts
24-Jan-18 19:38 34.849729 -111.788763 242 4835ft 0kts
24-Jan-18 19:39 34.849285 -111.789102 169 4835ft 5kts
24-Jan-18 19:40 34.850426 -111.787371 44 4835ft 17kts
24-Jan-18 19:41 34.853337 -111.783763 47 4835ft 15kts
24-Jan-18 19:42 34.853577 -111.783162 133 4835ft 0kts
24-Jan-18 19:43 34.853577 -111.783162 133 4835ft 0kts
24-Jan-18 19:44 34.853321 -111.782859 151 4835ft 6kts
24-Jan-18 19:45 34.844177 -111.794063 225 4877ft 188kts
24-Jan-18 19:46 34.795916 -111.854297 223 6776ft 265kts
24-Jan-18 19:47 34.747223 -111.914624 223 8993ft 272kts
24-Jan-18 19:48 34.691582 -111.899356 125 11276ft 272kts
24-Jan-18 19:49 34.652860 -111.823225 122 12915ft 278kts
24-Jan-18 19:50 34.645505 -111.737047 46 13938ft 315kts
24-Jan-18 19:51 34.725136 -111.714339 3 14859ft 334kts
24-Jan-18 19:52 34.811614 -111.710955 1 15307ft 340kts
24-Jan-18 19:53 34.877592 -111.655789 65 15798ft 332kts
24-Jan-18 19:54 34.908642 -111.552748 74 16281ft 343kts
24-Jan-18 19:55 34.934280 -111.450248 75 16731ft 350kts
24-Jan-18 19:56 34.960990 -111.336348 77 19617ft 372kts
24-Jan-18 19:57 34.988348 -111.212089 76 22980ft 411kts
24-Jan-18 19:58 35.020634 -111.064509 76 25020ft 460kts
24-Jan-18 19:59 35.053033 -110.915406 76 25020ft 459kts
24-Jan-18 20:00 35.084608 -110.769162 76 25288ft 460kts
24-Jan-18 20:01 35.116356 -110.621162 76 25283ft 459kts
24-Jan-18 20:02 35.148192 -110.471779 76 25284ft 459kts
24-Jan-18 20:03 35.179157 -110.325546 76 25282ft 459kts
24-Jan-18 20:04 35.210626 -110.175924 76 25282ft 458kts
24-Jan-18 20:05 35.241626 -110.027583 76 25282ft 459kts
24-Jan-18 20:06 35.272219 -109.880216 76 25286ft 459kts
24-Jan-18 20:07 35.301256 -109.739433 76 25314ft 458kts
24-Jan-18 20:08 35.331641 -109.591156 76 25341ft 459kts
24-Jan-18 20:09 35.361336 -109.445275 76 25348ft 459kts
24-Jan-18 20:10 35.390677 -109.300172 77 25346ft 459kts
24-Jan-18 20:11 35.420422 -109.151972 77 25347ft 459kts
24-Jan-18 20:12 35.447612 -109.015681 76 25347ft 457kts
24-Jan-18 20:13 35.473921 -108.870009 84 25366ft 453kts
24-Jan-18 20:14 35.479405 -108.724218 88 25348ft 453kts
24-Jan-18 20:15 35.482718 -108.575984 88 25348ft 453kts
24-Jan-18 20:16 35.485823 -108.426765 88 25352ft 453kts
24-Jan-18 20:17 35.482359 -108.286003 94 24715ft 443kts
24-Jan-18 20:18 35.473484 -108.146660 95 23140ft 414kts
24-Jan-18 20:19 35.464830 -108.015294 95 21612ft 404kts
24-Jan-18 20:20 35.456612 -107.892502 95 20384ft 362kts
24-Jan-18 20:21 35.449019 -107.777506 94 20373ft 367kts
24-Jan-18 20:22 35.441973 -107.664186 94 18958ft 355kts
24-Jan-18 20:23 35.435046 -107.554138 94 17513ft 349kts
24-Jan-18 20:24 35.428121 -107.445644 94 16111ft 338kts
24-Jan-18 20:25 35.411982 -107.346715 118 14659ft 320kts
24-Jan-18 20:26 35.371027 -107.262154 123 14018ft 305kts
24-Jan-18 20:27 35.328111 -107.178052 123 14018ft 308kts
24-Jan-18 20:28 35.282756 -107.096365 135 12848ft 295kts
24-Jan-18 20:29 35.230130 -107.033258 139 11364ft 269kts
24-Jan-18 20:30 35.178125 -106.974803 137 9853ft 260kts
24-Jan-18 20:31 35.129758 -106.917421 137 8504ft 239kts
24-Jan-18 20:32 35.085606 -106.863163 131 7727ft 232kts
24-Jan-18 20:33 35.049106 -106.811592 116 7603ft 191kts
24-Jan-18 20:34 35.044679 -106.765209 91 7411ft 170kts
24-Jan-18 20:35 35.044909 -106.727697 84 7209ft 161kts
24-Jan-18 20:36 35.044827 -106.691742 89 6618ft 162kts
24-Jan-18 20:37 35.044401 -106.655590 93 6008ft 152kts
24-Jan-18 20:38 35.044258 -106.628822 91 5562ft 132kts
24-Jan-18 20:39 35.044265 -106.608626 89 5359ft 34kts
24-Jan-18 20:40 35.044022 -106.601206 94 5359ft 35kts

Navigation Log

Ident Type
Flight plan parsing failed, navigation log unavailable